Ceres, Washington
Current Conditions -  °F | °C
As of 10:35 AM on Sunday 23 Nov 2014 (Local Time) from KCLS Reporting Station
Moderate Rain Moderate Rain  
Wind Chill: 44°   Ceiling: 3300
Heat Index: 46°   Visibility: 4mi
Dew Point: 46°   Wind: 5mph
Humidity: 100%   Direction: 220°SW
Pressure: 30.19"   Gusts: 12mph
Location:  46.6561°N, 122.993°W
Report Text: KCLS 231835Z AUTO 22004G10KT 4SM RA FEW005 SCT028 BKN033 08/08 A3019 RMK AO2
Loading
Personal Weather Stations






























Interactive Weather Map New forecast layout! Learn more

10-Day Weather Forecast

Advertisements
Track Severe Weather on mobile